Flight Track Log - Related Links

Times and Time Zones

All times are in EDT time to prevent confusion due to time zone crossing. See the ASQ5750 flight status page for this flight to view local times or setup timezone preferences in your user account.

Time Position Orientation Groundspeed Altitude Reporting Facility
EDT Latitude Longitude Course Direction KTS MPH feet Rate Location/Type
Fri 11:39:58 AM 39.0500 -84.6833 345° North 172 198 1,200  Level Cincinnati TRACON
Fri 11:40:22 AM 39.0500 -84.7167 270° West 173 199 2,300 2,133 Climbing Cincinnati TRACON
Fri 11:41:28 AM 39.1000 -84.7667 322° Northwest 265 305 4,400 2,476 Climbing Cincinnati TRACON
Fri 11:42:28 AM 39.1667 -84.8167 330° Northwest 258 297 7,500 2,846 Climbing Cincinnati TRACON
Fri 11:43:00 AM 38.9048 -84.7801 313° West  Level FlightAware Approximate
Fri 11:44:00 AM 38.9499 -84.8432 313° West  Level FlightAware Approximate
Fri 11:44:04 AM 39.2675 -84.8708 337° Northwest 273 314 11,800  Level Indianapolis Center
Fri 11:45:00 AM 39.0072 -84.8802 345° North  Level FlightAware Approximate
Fri 11:45:06 AM 39.3389 -84.9044 340° North 281 323 14,200  Level Indianapolis Center
Fri 11:46:08 AM 39.4128 -84.9394 340° North 283 326 16,600 2,081 Climbing Indianapolis Center
Fri 11:47:10 AM 39.5025 -84.9842 339° North 293 337 18,500 1,645 Climbing Indianapolis Center
Fri 11:48:12 AM 39.5747 -85.0344 332° Northwest 294 338 20,000 1,548 Climbing Indianapolis Center
Fri 11:49:14 AM 39.6500 -85.0869 332° Northwest 304 350 21,700 968 Climbing Indianapolis Center
Fri 11:50:16 AM 39.7258 -85.1389 332° Northwest 306 352 22,000 145 Climbing Indianapolis Center
Fri 11:51:18 AM 39.8036 -85.1936 332° Northwest 314 361 22,000  Level Indianapolis Center
Fri 11:52:20 AM 39.8814 -85.2467 332° Northwest 315 362 22,000  Level Indianapolis Center
Fri 11:53:22 AM 39.9692 -85.3083 332° Northwest 307 353 22,000  Level Indianapolis Center
Fri 11:54:24 AM 40.0439 -85.3608 332° Northwest 304 350 22,000  Level Indianapolis Center
Fri 11:55:26 AM 40.1172 -85.4128 332° Northwest 301 346 22,000  Level Indianapolis Center
Fri 11:56:17 AM 40.1675 -85.4756 316° Northwest 313 360 22,000  Level Chicago Center
Fri 11:57:19 AM 40.2300 -85.5644 313° West 330 380 22,000  Level Chicago Center
Fri 11:58:21 AM 40.2997 -85.6592 314° West 353 406 22,000  Level Chicago Center
Fri 11:59:23 AM 40.3833 -85.7775 313° West 375 432 22,000  Level Chicago Center
Fri 12:00:25 PM 40.4572 -85.8806 313° West 384 442 22,000  Level Chicago Center
Fri 12:01:27 PM 40.5317 -85.9872 313° West 393 452 22,000  Level Chicago Center
Fri 12:02:29 PM 40.6081 -86.0939 313° West 399 459 22,000  Level Chicago Center
Fri 12:03:31 PM 40.6833 -86.2028 312° West 401 461 22,000  Level Chicago Center
Fri 12:04:33 PM 40.7553 -86.3061 313° West 399 459 22,000  Level Chicago Center
Fri 12:05:35 PM 40.8456 -86.4378 312° West 403 464 22,000  Level Chicago Center
Fri 12:06:37 PM 40.9211 -86.5467 313° West 399 459 22,000 -1,016 Level Chicago Center
Fri 12:07:39 PM 40.9969 -86.6556 313° West 401 461 19,900 -2,081 Descending Chicago Center
Fri 12:08:41 PM 41.0775 -86.7706 313° West 399 459 17,700 -2,098 Descending Chicago Center
Fri 12:09:42 PM 41.1469 -86.8711 313° West 374 430 15,600 -1,756 Descending Chicago Center
Fri 12:10:44 PM 41.2103 -86.9658 312° West 350 403 14,100 -1,452 Descending Chicago Center
Fri 12:11:46 PM 41.2750 -87.0617 312° West 350 403 12,600 -1,452 Descending Chicago Center
Fri 12:12:48 PM 41.3394 -87.1550 313° West 347 399 11,100 -811 Descending Chicago Center
Fri 12:13:37 PM 41.4000 -87.2333 316° Northwest 330 380 11,100  Level Chicago TRACON
Fri 12:14:37 PM 41.4667 -87.3167 317° Northwest 338 389 11,100  Level Chicago TRACON
Fri 12:16:00 PM 41.5676 -87.4248 320° Northwest  Level FlightAware Approximate
Fri 12:16:37 PM 41.6167 -87.4833 320° Northwest 288 331 11,100  Level Chicago TRACON
Fri 12:16:56 PM 41.6206 -87.4878 319° Northwest 300 345 11,000  Descending Chicago Center
Fri 12:17:58 PM 41.6789 -87.5531 320° Northwest 279 321 11,100  Climbing Chicago Center
Fri 12:19:00 PM 41.7531 -87.6300 322° Northwest 290 334 11,000 -484 Descending Chicago Center
Fri 12:20:02 PM 41.8306 -87.6092 11° North 298 343 10,100 -1,109 Descending Chicago Center
Fri 12:20:32 PM 41.8667 -87.6333 334° Northwest 255 293 9,300 -1,533 Descending Chicago TRACON
Fri 12:21:32 PM 41.9167 -87.7000 315° West 236 272 7,800 -1,200 Descending Chicago TRACON
Fri 12:22:32 PM 41.9833 -87.7000 360° North 244 281 6,900 -1,250 Descending Chicago TRACON
Fri 12:23:32 PM 42.0333 -87.6667 26° Northeast 242 278 5,300 -1,350 Descending Chicago TRACON
Fri 12:24:32 PM 42.1000 -87.6333 20° North 213 245 4,200 -780 Descending Chicago TRACON
Fri 12:25:12 PM 42.1306 -87.6342 359° North 221 254 4,000 -118 Descending Chicago Center
Fri 12:26:14 PM 42.1622 -87.6861 309° West 203 234 4,000  Level Chicago Center
Fri 12:27:16 PM 42.1450 -87.7369 245° Southwest 162 186 4,000 -97 Level Chicago Center
Fri 12:28:18 PM 42.1133 -87.7711 219° Southwest 153 176 3,800 -629 Descending Chicago Center
Fri 12:29:20 PM 42.0731 -87.8144 219° Southwest 153 176 2,700 -1,065 Descending Chicago Center

Login

Don't have an account? Register now (free) for customized features, flight alerts, and more!